Time;durP1;ratioP1;P1;durP2;ratioP2;P2;SDS_P1;SDS_P2;PMS_P1;PMS_P2;Temp;Humidity;BMP_temperature;BMP_pressure;BME280_temperature;BME280_humidity;BME280_pressure;Samples;Min_cycle;Max_cycle;Signal;HPM_P1;HPM_P2
2022/12/11 00:01:16;;;;;;;32.83;17.83;;;;;;;-3.17;61.96;100484.69;6125345;23;20089;-72
2022/12/11 00:03:43;;;;;;;25.10;12.43;;;;;;;-2.98;61.59;100479.31;6125133;23;20022;-72
2022/12/11 00:06:13;;;;;;;34.88;17.88;;;;;;;-3.04;61.33;100474.38;6124948;23;20026;-71
2022/12/11 00:08:39;;;;;;;37.60;17.70;;;;;;;-3.07;61.82;100469.28;6124287;23;20049;-73
2022/12/11 00:11:15;;;;;;;31.17;16.58;;;;;;;-2.96;61.41;100460.84;6125760;23;20018;-72
2022/12/11 00:13:42;;;;;;;37.70;18.13;;;;;;;-2.96;61.44;100466.09;6124247;23;20034;-71
2022/12/11 00:16:08;;;;;;;38.63;17.95;;;;;;;-3.15;61.86;100458.34;6125013;23;20046;-72
2022/12/11 00:18:35;;;;;;;39.17;18.23;;;;;;;-2.94;60.91;100462.47;6126086;23;20422;-72
2022/12/11 00:21:04;;;;;;;34.90;18.10;;;;;;;-3.01;61.73;100466.34;6126199;23;20104;-71
2022/12/11 00:23:31;;;;;;;34.85;17.30;;;;;;;-3.16;62.07;100465.38;6125667;23;20467;-72
2022/12/11 00:25:57;;;;;;;40.08;17.23;;;;;;;-3.36;62.65;100458.50;6126203;23;20022;-72
2022/12/11 00:28:24;;;;;;;32.92;16.35;;;;;;;-3.28;62.12;100460.75;6126056;23;20082;-72
2022/12/11 00:30:50;;;;;;;33.17;16.48;;;;;;;-3.42;62.66;100455.34;6126133;23;20029;-72
2022/12/11 00:33:17;;;;;;;31.90;16.30;;;;;;;-3.14;61.72;100457.41;6124877;23;20387;-72
2022/12/11 00:35:45;;;;;;;35.92;16.67;;;;;;;-3.26;61.89;100453.66;6125497;23;20052;-72
2022/12/11 00:38:17;;;;;;;32.60;16.40;;;;;;;-3.34;62.54;100461.91;6126274;23;20467;-72
2022/12/11 00:40:43;;;;;;;34.78;16.63;;;;;;;-3.19;62.01;100460.28;6125659;23;20032;-72
2022/12/11 00:43:10;;;;;;;29.42;16.33;;;;;;;-3.07;61.78;100454.38;6123910;23;20028;-72
2022/12/11 00:45:40;;;;;;;38.50;16.65;;;;;;;-3.13;62.07;100449.47;6125744;23;20021;-72
2022/12/11 00:48:07;;;;;;;32.10;16.27;;;;;;;-3.08;61.89;100460.56;6124571;23;20025;-72
2022/12/11 00:50:35;;;;;;;27.80;15.43;;;;;;;-3.04;61.95;100463.88;6124592;23;20056;-72
2022/12/11 00:53:03;;;;;;;31.83;17.13;;;;;;;-3.14;62.25;100460.03;6082356;23;20026;-72
2022/12/11 00:55:30;;;;;;;32.22;17.15;;;;;;;-3.31;62.57;100460.91;6095015;23;20019;-72
2022/12/11 00:57:57;;;;;;;37.95;17.70;;;;;;;-3.49;62.71;100462.69;6095604;23;20018;-72
2022/12/11 01:00:23;;;;;;;35.65;17.23;;;;;;;-3.23;62.72;100457.91;6097195;23;20018;-72
2022/12/11 01:02:50;;;;;;;34.42;17.50;;;;;;;-3.12;62.50;100452.94;6096448;23;20074;-72
2022/12/11 01:05:17;;;;;;;40.10;16.67;;;;;;;-3.09;62.33;100452.78;6096438;23;20026;-72
2022/12/11 01:07:43;;;;;;;35.03;17.10;;;;;;;-3.22;62.76;100463.06;6097377;23;20078;-72
2022/12/11 01:10:24;;;;;;;31.63;15.85;;;;;;;-3.20;62.58;100460.38;6096720;23;20040;-72
2022/12/11 01:13:00;;;;;;;32.80;17.73;;;;;;;-3.32;62.95;100460.06;6097899;23;20027;-72
2022/12/11 01:15:39;;;;;;;32.63;17.33;;;;;;;-3.22;62.57;100460.44;6096761;23;20025;-72
2022/12/11 01:18:09;;;;;;;32.45;16.92;;;;;;;-3.47;63.51;100460.84;6076173;23;20023;-72
2022/12/11 01:20:38;;;;;;;32.80;17.45;;;;;;;-3.22;62.46;100460.44;6096066;23;20026;-72
2022/12/11 01:23:05;;;;;;;35.83;16.65;;;;;;;-3.15;62.53;100461.81;6095629;23;20026;-72
2022/12/11 01:25:34;;;;;;;33.70;17.70;;;;;;;-3.16;62.38;100468.00;6097518;23;20032;-72
2022/12/11 01:28:01;;;;;;;41.33;17.67;;;;;;;-3.36;62.88;100469.00;6096915;23;20019;-72
2022/12/11 01:30:27;;;;;;;32.45;17.08;;;;;;;-3.35;62.61;100467.22;6096123;23;20030;-71
2022/12/11 01:32:54;;;;;;;38.90;17.58;;;;;;;-3.16;62.16;100470.63;6097084;23;20034;-72
2022/12/11 01:35:20;;;;;;;36.95;17.83;;;;;;;-3.04;62.12;100466.50;6097547;23;20022;-72
2022/12/11 01:37:47;;;;;;;32.75;17.70;;;;;;;-3.15;62.46;100468.84;6096723;23;20037;-72
2022/12/11 01:40:17;;;;;;;34.35;18.17;;;;;;;-3.45;63.55;100458.13;6096656;23;20018;-71
2022/12/11 01:42:43;;;;;;;35.65;17.92;;;;;;;-3.28;62.73;100468.63;6096566;23;20036;-72
2022/12/11 01:45:22;;;;;;;35.92;18.35;;;;;;;-3.48;63.89;100468.75;6096323;23;20455;-72
2022/12/11 01:47:59;;;;;;;32.05;18.13;;;;;;;-3.23;62.69;100471.88;6095806;23;20034;-71
2022/12/11 01:50:27;;;;;;;37.60;17.45;;;;;;;-3.37;63.08;100462.06;6098445;23;20321;-70
2022/12/11 01:52:54;;;;;;;38.95;19.10;;;;;;;-3.27;63.08;100470.34;6121234;23;20034;-67
2022/12/11 01:55:20;;;;;;;36.67;18.42;;;;;;;-3.16;62.67;100473.25;6120625;23;20029;-68
2022/12/11 01:57:49;;;;;;;42.67;19.08;;;;;;;-3.19;62.91;100473.41;6120696;23;20030;-68
2022/12/11 02:00:16;;;;;;;37.45;19.23;;;;;;;-3.12;62.97;100473.94;6120555;23;20033;-67
2022/12/11 02:02:43;;;;;;;36.75;18.27;;;;;;;-3.17;62.79;100468.06;6095341;23;20019;-70
2022/12/11 02:09:49;;;;;;;34.30;17.52;;;;;;;-3.39;63.38;100458.66;6140931;23;20025;-70
2022/12/11 02:12:27;;;;;;;37.75;18.27;;;;;;;-3.09;62.17;100472.00;6146447;23;20018;-71
2022/12/11 02:15:26;;;;;;;39.28;19.88;;;;;;;-3.32;63.31;100486.28;6147528;23;20018;-69
2022/12/11 02:18:09;;;;;;;41.53;18.20;;;;;;;-3.25;62.95;100486.81;6147958;23;20042;-68
2022/12/11 02:20:53;;;;;;;35.67;17.98;;;;;;;-3.32;63.81;100474.94;6148412;23;20074;-67
2022/12/11 02:23:57;;;;;;;44.40;20.40;;;;;;;-3.23;62.95;100479.75;6149156;23;20017;-68
2022/12/11 02:26:33;;;;;;;36.83;18.27;;;;;;;-3.23;63.59;100473.66;6143218;23;20006;-69
2022/12/11 02:29:04;;;;;;;38.80;19.30;;;;;;;-3.22;63.52;100476.19;6147076;23;20102;-67
2022/12/11 02:32:23;;;;;;;38.60;20.07;;;;;;;-3.35;63.73;100470.69;6148745;23;20034;-68
2022/12/11 02:35:22;;;;;;;39.03;19.27;;;;;;;-3.28;62.65;100479.94;6092493;23;20260;-70
2022/12/11 02:38:04;;;;;;;45.70;20.27;;;;;;;-3.22;63.32;100478.81;6148931;23;20044;-69
2022/12/11 02:40:35;;;;;;;36.25;19.13;;;;;;;-3.24;63.25;100472.78;6150600;23;20001;-67
2022/12/11 02:43:07;;;;;;;36.25;19.55;;;;;;;-3.15;62.80;100460.97;6150227;23;20010;-69
2022/12/11 02:45:34;;;;;;;;;;;;;;;-3.33;64.05;100462.75;6152683;23;20020;-66
2022/12/11 02:48:04;;;;;;;40.55;18.83;;;;;;;-3.16;63.07;100468.00;6151039;23;19905;-67
2022/12/11 02:50:34;;;;;;;36.63;18.75;;;;;;;-3.09;62.40;100461.50;6149638;23;20018;-67
2022/12/11 02:53:03;;;;;;;36.05;18.75;;;;;;;-3.20;62.94;100463.00;6150386;23;20032;-70
2022/12/11 02:55:32;;;;;;;33.55;17.95;;;;;;;-3.35;64.17;100459.34;6152519;23;20055;-68
2022/12/11 02:58:04;;;;;;;37.88;19.38;;;;;;;-3.33;63.52;100452.28;6149601;23;20005;-68
2022/12/11 03:00:31;;;;;;;40.92;20.92;;;;;;;-3.24;63.86;100461.44;6149382;23;20010;-68
2022/12/11 03:02:57;;;;;;;38.70;20.00;;;;;;;-3.13;63.36;100453.88;6151010;23;20029;-68
2022/12/11 03:05:26;;;;;;;35.88;18.80;;;;;;;-3.19;63.57;100459.44;6152367;23;20022;-69
2022/12/11 03:07:52;;;;;;;40.42;18.92;;;;;;;-3.17;63.44;100450.56;6148559;23;20010;-68
2022/12/11 03:10:19;;;;;;;35.90;18.55;;;;;;;-3.14;63.29;100454.78;6150878;23;20005;-67
2022/12/11 03:12:49;;;;;;;38.33;19.60;;;;;;;-3.05;63.22;100452.53;6150349;23;20057;-70
2022/12/11 03:15:22;;;;;;;35.88;18.38;;;;;;;-3.20;63.24;100465.63;6148570;23;20028;-68
2022/12/11 03:18:04;;;;;;;36.70;19.33;;;;;;;-3.22;63.38;100459.59;6149577;23;20366;-71
2022/12/11 03:20:34;;;;;;;36.15;18.10;;;;;;;-3.22;63.70;100462.22;6151232;23;20048;-68
2022/12/11 03:23:23;;;;;;;34.22;18.23;;;;;;;-3.14;63.22;100466.13;6146952;23;20070;-68
2022/12/11 03:25:57;;;;;;;36.83;19.38;;;;;;;-3.25;63.62;100468.47;6146702;23;20025;-68
2022/12/11 03:28:49;;;;;;;43.38;19.52;;;;;;;-3.26;64.05;100473.81;6149144;23;20026;-70
2022/12/11 03:31:49;;;;;;;36.30;19.65;;;;;;;-3.21;63.62;100475.25;6138996;23;20022;-70
2022/12/11 03:34:26;;;;;;;38.83;19.77;;;;;;;-3.16;63.74;100467.16;6148223;23;20056;-70
2022/12/11 03:36:55;;;;;;;40.88;20.17;;;;;;;-3.15;63.70;100468.84;6122613;23;20009;-69
2022/12/11 03:39:29;;;;;;;39.65;20.40;;;;;;;-3.16;63.91;100465.38;6147217;23;20017;-68
2022/12/11 03:41:56;;;;;;;36.55;18.48;;;;;;;-3.32;64.64;100469.69;6149136;23;20040;-68
2022/12/11 03:44:23;;;;;;;36.22;20.48;;;;;;;-3.12;63.74;100472.16;6148534;23;20018;-70
2022/12/11 03:46:52;;;;;;;39.78;19.08;;;;;;;-3.21;64.04;100472.63;6149475;23;20014;-68
2022/12/11 03:49:25;;;;;;;35.33;19.30;;;;;;;-3.09;63.64;100460.66;6150052;23;20077;-68
2022/12/11 03:51:55;;;;;;;36.45;19.27;;;;;;;-3.12;63.74;100463.44;6150526;23;20073;-68
2022/12/11 03:54:22;;;;;;;38.28;19.70;;;;;;;-3.24;64.23;100461.44;6149123;23;20021;-68
2022/12/11 03:56:55;;;;;;;36.40;20.13;;;;;;;-3.22;63.97;100454.34;6149526;23;20042;-68
2022/12/11 03:59:22;;;;;;;38.80;19.35;;;;;;;-3.27;64.60;100459.84;6149308;23;20059;-67
2022/12/11 04:01:49;;;;;;;33.45;18.52;;;;;;;-3.26;64.36;100452.81;6149523;23;20026;-69
2022/12/11 04:04:16;;;;;;;35.45;18.92;;;;;;;-3.14;64.60;100457.41;6148421;23;20053;-69
2022/12/11 04:06:43;;;;;;;37.70;19.17;;;;;;;-3.17;64.38;100452.31;6151032;23;20026;-67
2022/12/11 04:09:10;;;;;;;37.78;19.75;;;;;;;-3.12;64.34;100450.31;6143905;23;20034;-68
2022/12/11 04:11:37;;;;;;;42.03;19.70;;;;;;;-3.18;64.41;100461.13;6149395;23;20022;-68
2022/12/11 04:16:55;;;;;;;36.65;19.05;;;;;;;-3.23;64.38;100455.28;6150410;23;20021;-67
2022/12/11 04:24:58;;;;;;;40.20;19.63;;;;;;;-3.10;64.37;100453.69;6118275;23;20045;-67
2022/12/11 04:28:11;;;;;;;38.53;19.42;;;;;;;-3.18;64.64;100451.47;6119832;23;20057;-68
2022/12/11 04:30:15;;;;;;;38.85;20.15;;;;;;;-3.20;64.82;100444.63;6132175;23;20028;-68
2022/12/11 04:32:42;;;;;;;42.17;20.42;;;;;;;-3.10;64.34;100443.19;6136606;23;20069;-67
2022/12/11 04:35:09;;;;;;;40.90;20.27;;;;;;;-3.15;64.66;100443.44;6149504;23;20036;-67
2022/12/11 04:37:37;;;;;;;43.58;19.77;;;;;;;-3.28;65.25;100437.97;6149938;23;20053;-68
2022/12/11 04:40:05;;;;;;;43.50;20.13;;;;;;;-3.13;65.03;100439.00;6149917;23;20021;-67
2022/12/11 04:42:32;;;;;;;42.10;20.17;;;;;;;-3.14;64.98;100437.25;6148497;23;20073;-67
2022/12/11 04:44:58;;;;;;;39.67;21.15;;;;;;;-3.15;65.11;100439.97;6147104;23;20049;-67
2022/12/11 04:47:25;;;;;;;39.22;20.13;;;;;;;-3.02;64.41;100441.03;6148894;23;20219;-68
2022/12/11 04:49:51;;;;;;;39.35;19.58;;;;;;;-3.05;64.60;100435.94;6148991;23;20065;-68
2022/12/11 04:52:18;;;;;;;39.67;18.98;;;;;;;-3.10;64.69;100440.56;6149469;23;20041;-71
2022/12/11 04:54:44;;;;;;;36.10;19.65;;;;;;;-3.26;65.06;100432.66;6148540;23;20049;-71
2022/12/11 04:57:11;;;;;;;37.67;18.85;;;;;;;-3.20;64.76;100434.13;6149813;23;20018;-68
2022/12/11 04:59:37;;;;;;;35.80;18.75;;;;;;;-3.30;65.54;100447.72;6150173;23;20036;-67
2022/12/11 05:02:04;;;;;;;38.72;19.65;;;;;;;-3.25;65.03;100436.97;6149025;23;20049;-67
2022/12/11 05:04:32;;;;;;;36.38;18.45;;;;;;;-3.33;65.66;100437.38;6148914;23;20033;-69
2022/12/11 05:07:00;;;;;;;35.05;18.85;;;;;;;-3.34;65.68;100443.56;6149292;23;20081;-69
2022/12/11 05:09:26;;;;;;;39.08;18.80;;;;;;;-3.36;65.65;100437.53;6147914;23;20033;-68
2022/12/11 05:11:53;;;;;;;38.20;19.60;;;;;;;-3.33;65.54;100433.91;6124338;23;20032;-70
2022/12/11 05:14:20;;;;;;;35.40;19.27;;;;;;;-3.41;65.66;100431.69;6150053;23;20033;-70
2022/12/11 05:16:47;;;;;;;35.95;18.70;;;;;;;-3.25;65.43;100433.50;6148597;23;20029;-71
2022/12/11 05:19:13;;;;;;;38.30;20.40;;;;;;;-3.26;65.78;100430.03;6150959;23;20057;-68
2022/12/11 05:21:40;;;;;;;43.05;18.33;;;;;;;-3.26;65.47;100430.03;6148445;23;20057;-68
2022/12/11 05:24:07;;;;;;;37.42;17.70;;;;;;;-3.23;65.51;100426.44;6149897;23;20058;-68
2022/12/11 05:26:33;;;;;;;35.90;19.83;;;;;;;-3.40;65.99;100435.16;6149158;23;20041;-68
2022/12/11 05:29:00;;;;;;;37.05;19.63;;;;;;;-3.37;65.84;100421.88;6150120;23;20133;-67
2022/12/11 05:31:27;;;;;;;36.92;19.45;;;;;;;-3.40;66.31;100422.88;6150257;23;20033;-67
2022/12/11 05:33:53;;;;;;;37.45;18.92;;;;;;;-3.28;65.78;100424.84;6149222;23;20054;-68
2022/12/11 05:36:25;;;;;;;36.80;19.48;;;;;;;-3.21;65.45;100432.41;6149037;23;20028;-71
2022/12/11 05:38:53;;;;;;;38.83;18.23;;;;;;;-3.20;65.09;100421.03;6137201;23;20041;-68
2022/12/11 05:41:21;;;;;;;39.00;19.75;;;;;;;-3.24;65.55;100422.09;6148490;23;20025;-69
2022/12/11 05:43:48;;;;;;;41.53;20.40;;;;;;;-3.16;65.43;100423.41;6149205;23;20097;-70
2022/12/11 05:46:21;;;;;;;40.83;19.35;;;;;;;-3.42;66.28;100424.72;6150425;23;20073;-68
2022/12/11 05:48:50;;;;;;;40.58;19.08;;;;;;;-3.32;65.82;100420.69;6149117;23;20084;-70
2022/12/11 05:51:18;;;;;;;39.70;19.02;;;;;;;-3.32;66.20;100418.06;6148669;23;20055;-70
2022/12/11 05:53:46;;;;;;;42.83;19.88;;;;;;;-3.53;66.94;100424.44;6150358;23;20026;-68
2022/12/11 05:56:18;;;;;;;43.28;19.80;;;;;;;-3.34;66.50;100419.09;6150156;23;20025;-68
2022/12/11 05:58:46;;;;;;;40.08;18.65;;;;;;;-3.30;66.53;100413.63;6149062;23;20066;-67
2022/12/11 06:01:17;;;;;;;37.85;19.75;;;;;;;-3.37;66.62;100412.25;6150478;23;20018;-67
2022/12/11 06:03:43;;;;;;;38.38;19.25;;;;;;;-3.46;66.67;100417.94;6150160;23;20069;-67
2022/12/11 06:06:10;;;;;;;42.28;20.42;;;;;;;-3.31;66.43;100413.69;6149734;23;20066;-67
2022/12/11 06:08:37;;;;;;;41.05;19.77;;;;;;;-3.31;66.52;100411.94;6148145;23;20045;-67
2022/12/11 06:11:05;;;;;;;38.92;20.02;;;;;;;-3.44;66.69;100421.34;6149065;23;20009;-67
2022/12/11 06:13:32;;;;;;;43.28;20.48;;;;;;;-3.31;66.62;100418.94;6149900;23;20100;-68
2022/12/11 06:16:05;;;;;;;43.55;19.40;;;;;;;-3.16;65.82;100418.16;6147992;23;20045;-67
2022/12/11 06:18:38;;;;;;;42.72;20.33;;;;;;;-3.34;66.67;100419.94;6147540;23;20025;-68
2022/12/11 06:21:28;;;;;;;43.80;20.70;;;;;;;-3.33;67.00;100410.31;6148775;23;20042;-68
2022/12/11 06:23:58;;;;;;;42.30;19.48;;;;;;;-3.68;67.77;100415.56;6119872;23;20528;-69
2022/12/11 06:26:26;;;;;;;42.63;20.48;;;;;;;-3.51;67.53;100414.72;6138768;23;20033;-68
2022/12/11 06:28:52;;;;;;;41.40;20.52;;;;;;;-3.46;66.76;100410.06;6149433;23;20025;-68
2022/12/11 06:31:19;;;;;;;36.65;19.45;;;;;;;-3.46;66.62;100423.19;6148702;23;20021;-68
2022/12/11 06:33:46;;;;;;;38.80;18.92;;;;;;;-3.51;66.36;100409.47;6149909;23;20050;-69
2022/12/11 06:36:15;;;;;;;35.05;17.27;;;;;;;-3.72;66.54;100418.41;6149438;23;20054;-68
2022/12/11 06:38:42;;;;;;;34.75;16.92;;;;;;;-3.65;66.73;100419.81;6148827;23;20211;-68
2022/12/11 06:41:09;;;;;;;34.67;16.70;;;;;;;-3.62;65.83;100411.75;6149478;23;20016;-68
2022/12/11 06:43:38;;;;;;;29.88;16.02;;;;;;;-3.65;65.53;100415.41;6149069;23;20013;-69
2022/12/11 06:46:10;;;;;;;29.25;15.00;;;;;;;-3.44;64.19;100417.88;6148620;23;20025;-68
2022/12/11 06:48:37;;;;;;;34.22;14.88;;;;;;;-3.40;63.84;100408.91;6148704;23;20046;-68
2022/12/11 06:51:09;;;;;;;31.08;15.25;;;;;;;-3.61;64.98;100429.22;6148464;23;20026;-68
2022/12/11 06:53:35;;;;;;;;;;;;;;;-3.68;64.77;100427.81;6148710;23;20013;-68
2022/12/11 06:56:11;;;;;;;28.92;15.65;;;;;;;-3.38;63.67;100434.13;6149303;23;19941;-68
2022/12/11 06:58:39;;;;;;;32.25;15.75;;;;;;;-3.53;64.39;100435.75;6148348;23;20074;-68
2022/12/11 07:01:15;;;;;;;32.30;15.32;;;;;;;-3.53;64.05;100434.91;6148190;23;20002;-69
2022/12/11 07:03:41;;;;;;;28.75;15.40;;;;;;;-3.75;64.45;100429.06;6147424;23;20018;-67
2022/12/11 07:06:08;;;;;;;26.40;13.18;;;;;;;-3.68;63.26;100431.28;6149176;23;20042;-67
2022/12/11 07:08:35;;;;;;;28.98;15.48;;;;;;;-3.84;63.02;100436.44;6147631;23;20070;-67
2022/12/11 07:11:07;;;;;;;31.48;13.93;;;;;;;-3.87;62.43;100428.72;6149757;23;20025;-70
2022/12/11 07:13:34;;;;;;;27.20;12.27;;;;;;;-3.91;62.37;100434.19;6149327;23;20074;-71
2022/12/11 07:16:03;;;;;;;25.17;12.65;;;;;;;-4.04;61.89;100429.53;6150359;23;20032;-69
2022/12/11 07:18:31;;;;;;;27.60;12.15;;;;;;;-3.89;61.04;100430.59;6150531;23;20013;-68
2022/12/11 07:20:59;;;;;;;25.25;12.60;;;;;;;-3.97;61.58;100429.25;6149032;23;20022;-71
2022/12/11 07:23:27;;;;;;;24.63;11.85;;;;;;;-3.92;61.27;100425.47;6149754;23;20033;-70
2022/12/11 07:25:54;;;;;;;28.35;13.40;;;;;;;-3.86;60.79;100430.44;6151746;23;20053;-70
2022/12/11 07:28:21;;;;;;;27.38;13.38;;;;;;;-3.74;60.99;100428.97;6151746;23;20018;-69
2022/12/11 07:30:48;;;;;;;26.00;13.07;;;;;;;-3.63;60.78;100434.53;6152723;23;20032;-68
2022/12/11 07:33:14;;;;;;;26.13;13.38;;;;;;;-3.81;61.01;100431.03;6131776;23;20024;-70
2022/12/11 07:35:41;;;;;;;27.02;13.65;;;;;;;-3.68;60.82;100433.06;6150482;23;20014;-68
2022/12/11 07:38:07;;;;;;;25.30;13.25;;;;;;;-3.85;61.32;100431.28;6149822;23;20009;-68
2022/12/11 07:40:34;;;;;;;28.60;12.25;;;;;;;-4.01;61.32;100439.88;6149947;23;20022;-69
2022/12/11 07:43:00;;;;;;;27.23;12.93;;;;;;;-4.06;61.85;100441.03;6150215;23;20066;-70
2022/12/11 07:45:27;;;;;;;23.95;12.95;;;;;;;-4.17;61.54;100444.16;6151035;23;20075;-69
2022/12/11 07:47:53;;;;;;;30.15;13.52;;;;;;;-3.91;61.01;100442.91;6151064;23;20036;-69
2022/12/11 07:50:20;;;;;;;25.80;13.15;;;;;;;-3.93;61.69;100447.38;6151379;23;20022;-70
2022/12/11 07:52:46;;;;;;;32.03;13.77;;;;;;;-3.80;61.39;100437.13;6151495;23;20065;-68
2022/12/11 07:55:13;;;;;;;28.80;13.20;;;;;;;-3.94;61.67;100445.66;6150537;23;20057;-68
2022/12/11 07:57:39;;;;;;;28.75;13.82;;;;;;;-3.90;61.38;100455.06;6149918;23;20060;-69
2022/12/11 08:00:06;;;;;;;22.10;12.57;;;;;;;-3.81;60.97;100443.31;6097159;23;20042;-68
2022/12/11 08:02:33;;;;;;;24.33;12.40;;;;;;;-4.05;61.77;100451.41;6111599;23;20053;-69
2022/12/11 08:05:03;;;;;;;33.38;13.80;;;;;;;-3.93;61.49;100441.25;6121561;23;20058;-69
2022/12/11 08:07:30;;;;;;;24.70;12.32;;;;;;;-4.10;61.61;100444.72;6121674;23;20147;-69
2022/12/11 08:09:56;;;;;;;29.02;12.52;;;;;;;-4.00;62.14;100445.97;6121488;23;20086;-71
2022/12/11 08:12:22;;;;;;;24.20;13.50;;;;;;;-3.99;61.64;100454.69;6120796;23;20022;-70
2022/12/11 08:14:49;;;;;;;29.17;12.93;;;;;;;-3.81;61.29;100446.75;6122037;23;20010;-68
2022/12/11 08:17:15;;;;;;;29.13;13.82;;;;;;;-3.98;62.00;100446.75;6121653;23;20037;-68
2022/12/11 08:19:42;;;;;;;31.58;13.80;;;;;;;-3.82;61.87;100449.47;6120559;23;20010;-68
2022/12/11 08:22:08;;;;;;;25.60;13.52;;;;;;;-3.97;61.93;100451.03;6119846;23;20038;-68
2022/12/11 08:24:35;;;;;;;27.73;14.85;;;;;;;-3.64;60.97;100447.72;6120737;23;20030;-67
2022/12/11 08:27:01;;;;;;;30.88;14.32;;;;;;;-3.58;60.93;100452.66;6120354;23;20057;-69
2022/12/11 08:29:28;;;;;;;26.00;13.73;;;;;;;-3.66;61.32;100452.19;6120276;23;20015;-70
2022/12/11 08:31:54;;;;;;;26.90;14.07;;;;;;;-3.57;60.93;100449.09;6120940;23;20079;-69
2022/12/11 08:34:21;;;;;;;24.42;12.77;;;;;;;-3.62;60.96;100456.34;6120053;23;20018;-70
2022/12/11 08:36:47;;;;;;;28.95;13.27;;;;;;;-3.58;60.59;100448.25;6122033;23;20011;-69
2022/12/11 08:39:14;;;;;;;25.23;13.48;;;;;;;-3.54;60.84;100454.22;6121578;23;20058;-69
2022/12/11 08:41:40;;;;;;;25.80;12.50;;;;;;;-3.54;60.44;100451.59;6121287;23;20048;-71
2022/12/11 08:44:11;;;;;;;23.33;12.18;;;;;;;-3.61;60.81;100455.44;6121684;23;20010;-69
2022/12/11 08:46:42;;;;;;;27.70;13.30;;;;;;;-3.64;60.90;100461.66;6121003;23;20041;-69
2022/12/11 08:49:09;;;;;;;31.40;13.63;;;;;;;-3.63;61.32;100458.13;6120544;23;20018;-67
2022/12/11 08:51:35;;;;;;;31.98;13.35;;;;;;;-3.58;61.33;100457.91;6120230;23;20098;-68
2022/12/11 08:54:02;;;;;;;25.92;12.65;;;;;;;-3.64;60.54;100453.81;6095540;23;20010;-69
2022/12/11 08:56:29;;;;;;;24.80;13.60;;;;;;;-3.53;60.93;100454.13;6120601;23;20062;-69
2022/12/11 08:58:59;;;;;;;27.85;13.73;;;;;;;-3.62;60.88;100451.09;6119376;23;20014;-70
2022/12/11 09:01:27;;;;;;;22.98;12.75;;;;;;;-3.66;60.79;100450.41;6119345;23;20030;-70
2022/12/11 09:03:55;;;;;;;25.92;12.95;;;;;;;-3.69;61.20;100440.06;6121082;23;20030;-69
2022/12/11 09:06:24;;;;;;;25.83;13.57;;;;;;;-3.46;60.45;100446.78;6119225;23;20045;-69
2022/12/11 09:08:51;;;;;;;25.48;12.88;;;;;;;-3.63;60.68;100452.03;6120263;23;20038;-73
2022/12/11 09:11:22;;;;;;;30.05;13.82;;;;;;;-3.45;60.32;100458.97;6119649;23;20062;-68
2022/12/11 09:13:49;;;;;;;27.02;13.80;;;;;;;-3.50;60.45;100453.13;6149226;23;20033;-68
2022/12/11 09:16:19;;;;;;;27.70;13.07;;;;;;;-3.47;60.46;100454.75;6143355;23;20010;-68
2022/12/11 09:21:23;;;;;;;25.05;11.70;;;;;;;-3.41;59.85;100454.41;6147068;23;20009;-71
2022/12/11 09:24:09;;;;;;;25.45;12.75;;;;;;;-3.39;60.00;100445.56;6175544;23;20013;-70
2022/12/11 09:26:37;;;;;;;24.85;12.13;;;;;;;-3.29;59.37;100456.44;6164552;23;20040;-70
2022/12/11 09:29:04;;;;;;;26.25;13.45;;;;;;;-3.46;59.95;100457.28;6179446;23;20084;-68
2022/12/11 09:31:34;;;;;;;24.15;12.82;;;;;;;-3.37;59.83;100451.59;6180277;23;20032;-70
2022/12/11 09:34:04;;;;;;;25.20;13.05;;;;;;;-3.19;58.85;100449.78;6178076;23;20021;-69
2022/12/11 09:36:31;;;;;;;26.63;12.70;;;;;;;-3.55;59.56;100455.97;6180226;23;20021;-70
2022/12/11 09:39:02;;;;;;;24.55;12.57;;;;;;;-3.46;60.02;100454.66;6179460;23;20025;-71
2022/12/11 09:41:53;;;;;;;23.50;11.65;;;;;;;-3.54;59.83;100454.22;6179644;23;20073;-71
2022/12/11 09:44:33;;;;;;;23.17;12.55;;;;;;;-3.34;59.42;100440.94;6147376;23;19998;-71
2022/12/11 09:47:00;;;;;;;25.50;12.30;;;;;;;-3.54;59.62;100433.22;6170237;23;20010;-68
2022/12/11 09:49:35;;;;;;;24.17;12.80;;;;;;;-3.54;60.74;100430.59;6152524;23;20012;-70
2022/12/11 09:52:11;;;;;;;33.15;12.00;;;;;;;-3.56;60.64;100438.53;6177246;23;20009;-70
2022/12/11 09:54:50;;;;;;;24.60;12.48;;;;;;;-3.46;59.65;100431.06;6179453;23;20021;-69
2022/12/11 09:57:47;;;;;;;26.98;13.18;;;;;;;-3.42;60.05;100431.75;6180185;23;20025;-69
2022/12/11 10:00:30;;;;;;;27.63;12.85;;;;;;;-3.31;60.02;100430.28;6148967;23;20022;-68
2022/12/11 10:03:09;;;;;;;26.85;13.07;;;;;;;-3.33;59.88;100434.75;6122344;23;20025;-70
2022/12/11 10:05:51;;;;;;;26.10;12.50;;;;;;;-3.49;60.01;100425.97;6119760;23;20049;-69
2022/12/11 10:08:27;;;;;;;;;;;;;;;-3.39;59.97;100431.59;6120386;23;20029;-69
2022/12/11 10:11:19;;;;;;;28.52;12.63;;;;;;;-3.61;61.10;100422.19;6120772;23;19917;-72
2022/12/11 10:14:17;;;;;;;30.30;13.85;;;;;;;-3.69;61.35;100419.09;6127785;23;20066;-71
2022/12/11 10:16:48;;;;;;;27.23;13.73;;;;;;;-3.56;61.14;100414.09;6120692;23;20081;-70
2022/12/11 10:19:29;;;;;;;27.73;12.93;;;;;;;-3.39;60.35;100411.47;6120677;23;20081;-70
2022/12/11 10:21:57;;;;;;;29.75;14.30;;;;;;;-3.33;60.64;100400.66;6166592;23;20032;-70
2022/12/11 10:24:36;;;;;;;27.50;12.55;;;;;;;-3.35;61.14;100404.28;6123695;23;20066;-69
2022/12/11 10:27:30;;;;;;;24.88;12.30;;;;;;;-3.33;60.78;100403.28;6118705;23;20022;-70
2022/12/11 10:30:20;;;;;;;27.95;13.98;;;;;;;-3.45;61.71;100392.56;6120141;23;20022;-70
2022/12/11 10:32:51;;;;;;;27.40;13.70;;;;;;;-3.32;61.18;100391.84;6177460;23;20032;-69
2022/12/11 10:35:27;;;;;;;26.20;12.18;;;;;;;-3.41;61.28;100394.97;6215138;23;20029;-70
2022/12/11 10:38:00;;;;;;;24.17;13.35;;;;;;;-3.57;61.53;100394.03;6212542;23;20017;-71
2022/12/11 10:40:29;;;;;;;25.95;13.93;;;;;;;-3.47;61.27;100391.81;6207699;23;20092;-70
2022/12/11 10:42:56;;;;;;;26.30;13.52;;;;;;;-3.35;60.74;100389.38;6208177;23;20013;-68
2022/12/11 10:45:22;;;;;;;29.17;13.90;;;;;;;-3.13;60.18;100385.66;6209296;23;20044;-68
2022/12/11 10:47:48;;;;;;;30.77;14.77;;;;;;;-3.28;60.45;100387.28;6208953;23;20024;-69
2022/12/11 10:50:24;;;;;;;26.20;13.00;;;;;;;-3.21;60.59;100387.81;6208527;23;20092;-68
2022/12/11 10:52:52;;;;;;;22.67;12.40;;;;;;;-3.38;61.10;100378.19;6207318;23;20029;-68
2022/12/11 10:55:26;;;;;;;30.67;13.38;;;;;;;-3.25;60.91;100388.91;6209754;23;20020;-68
2022/12/11 10:57:58;;;;;;;36.10;14.38;;;;;;;-3.39;60.56;100395.72;6201014;23;20013;-69
2022/12/11 11:00:39;;;;;;;22.88;12.93;;;;;;;-3.40;60.94;100393.19;6209694;23;20020;-70
2022/12/11 11:03:26;;;;;;;30.00;13.82;;;;;;;-3.36;60.87;100387.69;6180146;23;20092;-69
2022/12/11 11:06:03;;;;;;;27.88;14.48;;;;;;;-3.11;59.76;100378.53;6178896;23;20012;-71
2022/12/11 11:08:39;;;;;;;31.80;14.50;;;;;;;-3.35;61.54;100381.50;6178659;23;20053;-70
2022/12/11 11:11:07;;;;;;;28.25;13.88;;;;;;;-3.15;60.71;100371.75;6179903;23;20048;-69
2022/12/11 11:13:34;;;;;;;35.17;16.95;;;;;;;-3.05;60.48;100372.97;6179915;23;20129;-68
2022/12/11 11:16:08;;;;;;;30.77;14.27;;;;;;;-2.99;59.91;100375.28;6179470;23;20033;-70
2022/12/11 11:18:35;;;;;;;27.05;13.73;;;;;;;-2.92;59.35;100368.75;6180285;23;20067;-68
2022/12/11 11:21:02;;;;;;;28.35;13.60;;;;;;;-3.14;60.01;100365.56;6179832;23;20029;-68
2022/12/11 11:23:29;;;;;;;31.95;14.13;;;;;;;-3.08;59.85;100370.50;6178014;23;20014;-69
2022/12/11 11:25:58;;;;;;;30.88;14.25;;;;;;;-3.02;59.74;100372.81;6177416;23;20048;-67
2022/12/11 11:28:28;;;;;;;26.15;13.18;;;;;;;-3.12;59.85;100361.09;6177081;23;20026;-70
2022/12/11 11:31:05;;;;;;;32.33;14.27;;;;;;;-3.09;59.96;100350.44;6178326;23;20046;-69
2022/12/11 11:33:34;;;;;;;37.63;14.70;;;;;;;-3.14;60.42;100362.94;6177125;23;20021;-69
2022/12/11 11:36:04;;;;;;;31.08;13.75;;;;;;;-2.69;59.18;100353.53;6176943;23;20474;-69
2022/12/11 11:38:49;;;;;;;25.70;12.75;;;;;;;-2.82;59.76;100342.88;6178175;23;20070;-69
2022/12/11 11:41:18;;;;;;;34.83;14.27;;;;;;;-2.97;59.99;100343.69;6177531;23;20045;-68